createdAt,value
2023-01-12T00:00:38.512Z,9.50
2023-01-12T00:01:38.476Z,9.51
2023-01-12T00:02:38.566Z,9.53
2023-01-12T00:03:38.516Z,9.61
2023-01-12T00:04:38.562Z,9.60
2023-01-12T00:05:38.558Z,9.51
2023-01-12T00:06:38.581Z,9.58
2023-01-12T00:07:38.606Z,9.56
2023-01-12T00:08:38.623Z,9.64
2023-01-12T00:09:38.649Z,9.64
2023-01-12T00:10:38.668Z,9.64
2023-01-12T00:11:38.686Z,9.64
2023-01-12T00:12:38.707Z,9.68
2023-01-12T00:13:38.727Z,9.69
2023-01-12T00:14:38.756Z,9.69
2023-01-12T00:15:38.768Z,9.74
2023-01-12T00:16:38.795Z,9.74
2023-01-12T00:17:38.822Z,9.75
2023-01-12T00:18:38.836Z,9.81
2023-01-12T00:19:38.985Z,9.86
2023-01-12T00:20:38.875Z,9.83
2023-01-12T00:21:38.894Z,9.81
2023-01-12T00:22:38.917Z,9.78
2023-01-12T00:23:38.937Z,9.83
2023-01-12T00:24:38.961Z,9.78
2023-01-12T00:25:38.980Z,9.78
2023-01-12T00:26:39.004Z,9.83
2023-01-12T00:27:39.026Z,9.78
2023-01-12T00:28:39.043Z,9.84
2023-01-12T00:29:39.078Z,9.78
2023-01-12T00:30:39.091Z,9.81
2023-01-12T00:31:39.111Z,9.83
2023-01-12T00:32:39.146Z,9.79
2023-01-12T00:33:39.165Z,9.81
2023-01-12T00:34:39.191Z,9.78
2023-01-12T00:35:39.191Z,9.71
2023-01-12T00:36:39.222Z,9.79
2023-01-12T00:37:39.233Z,9.74
2023-01-12T00:38:39.257Z,9.79
2023-01-12T00:39:43.019Z,9.78
2023-01-12T00:40:39.298Z,9.74
2023-01-12T00:41:39.321Z,9.72
2023-01-12T00:42:39.349Z,9.66
2023-01-12T00:43:39.362Z,9.66
2023-01-12T00:44:39.385Z,9.65
2023-01-12T00:45:39.409Z,9.68
2023-01-12T00:46:39.424Z,9.61
2023-01-12T00:47:39.447Z,9.61
2023-01-12T00:48:39.531Z,9.61
2023-01-12T00:49:39.486Z,9.58
2023-01-12T00:50:39.510Z,9.64
2023-01-12T00:51:39.534Z,9.61
2023-01-12T00:52:39.550Z,9.60
2023-01-12T00:53:39.582Z,9.58
2023-01-12T00:54:39.597Z,9.51
2023-01-12T00:55:39.613Z,9.56
2023-01-12T00:56:39.641Z,9.56
2023-01-12T00:57:39.656Z,9.56
2023-01-12T00:58:39.679Z,9.60
2023-01-12T00:59:39.701Z,9.56
2023-01-12T01:00:39.720Z,9.48
2023-01-12T01:01:39.846Z,9.54
2023-01-12T01:02:39.805Z,9.51
2023-01-12T01:03:39.807Z,9.47
2023-01-12T01:04:39.809Z,9.61
2023-01-12T01:05:39.826Z,9.54
2023-01-12T01:06:39.870Z,9.53
2023-01-12T01:07:39.871Z,9.65
2023-01-12T01:08:39.895Z,9.71
2023-01-12T01:09:39.924Z,9.48
2023-01-12T01:10:39.936Z,9.56
2023-01-12T01:11:39.948Z,9.53
2023-01-12T01:12:39.977Z,9.57
2023-01-12T01:13:40.001Z,9.66
2023-01-12T01:14:40.031Z,9.64
2023-01-12T01:15:40.077Z,9.60
2023-01-12T01:16:40.059Z,9.60
2023-01-12T01:17:40.079Z,9.68
2023-01-12T01:18:40.110Z,9.68
2023-01-12T01:19:40.134Z,9.66
2023-01-12T01:20:40.144Z,9.66
2023-01-12T01:21:40.165Z,9.64
2023-01-12T01:22:40.191Z,9.76
2023-01-12T01:23:40.207Z,9.76
2023-01-12T01:24:40.226Z,9.69
2023-01-12T01:25:40.248Z,9.79
2023-01-12T01:26:40.268Z,9.78
2023-01-12T01:27:40.299Z,9.81
2023-01-12T01:28:40.313Z,9.78
2023-01-12T01:29:40.343Z,9.79
2023-01-12T01:30:40.360Z,9.81
2023-01-12T01:31:40.375Z,9.79
2023-01-12T01:32:40.398Z,9.86
2023-01-12T01:33:40.425Z,9.78
2023-01-12T01:34:40.441Z,9.83
2023-01-12T01:35:40.473Z,9.79
2023-01-12T01:36:40.484Z,9.81
2023-01-12T01:37:40.501Z,9.83
2023-01-12T01:38:40.525Z,9.83
2023-01-12T01:39:40.547Z,9.86
2023-01-12T01:40:40.581Z,9.79
2023-01-12T01:41:43.476Z,9.83
2023-01-12T01:42:40.616Z,9.76
2023-01-12T01:43:40.635Z,9.79
2023-01-12T01:44:40.653Z,9.64
2023-01-12T01:45:40.675Z,9.74
2023-01-12T01:46:40.758Z,9.64
2023-01-12T01:47:40.716Z,9.64
2023-01-12T01:48:40.742Z,9.60
2023-01-12T01:49:40.756Z,9.64
2023-01-12T01:50:40.784Z,9.54
2023-01-12T01:51:40.801Z,9.53
2023-01-12T01:52:40.827Z,9.64
2023-01-12T01:53:40.844Z,9.53
2023-01-12T01:54:40.865Z,9.56
2023-01-12T01:55:40.887Z,9.58
2023-01-12T01:56:40.913Z,9.56
2023-01-12T01:57:40.932Z,9.56
2023-01-12T01:58:40.949Z,9.57
2023-01-12T01:59:40.974Z,9.53
2023-01-12T02:00:40.993Z,9.51
2023-01-12T02:01:41.070Z,9.53
2023-01-12T02:02:41.078Z,9.54
2023-01-12T02:03:41.058Z,9.48
2023-01-12T02:04:41.076Z,9.50
2023-01-12T02:05:41.099Z,9.58
2023-01-12T02:06:41.116Z,9.56
2023-01-12T02:07:41.139Z,9.57
2023-01-12T02:08:41.162Z,9.56
2023-01-12T02:09:41.186Z,9.57
2023-01-12T02:10:41.201Z,9.48
2023-01-12T02:11:41.242Z,9.47
2023-01-12T02:12:41.267Z,9.50
2023-01-12T02:13:41.264Z,9.54
2023-01-12T02:14:41.287Z,9.58
2023-01-12T02:15:41.346Z,9.53
2023-01-12T02:16:41.344Z,9.51
2023-01-12T02:17:41.359Z,9.57
2023-01-12T02:18:41.373Z,9.54
2023-01-12T02:19:41.396Z,9.61
2023-01-12T02:20:41.426Z,9.64
2023-01-12T02:21:41.434Z,9.51
2023-01-12T02:22:41.456Z,9.57
2023-01-12T02:23:41.499Z,9.61
2023-01-12T02:24:41.502Z,9.66
2023-01-12T02:25:41.520Z,9.61
2023-01-12T02:26:41.543Z,9.64
2023-01-12T02:27:41.559Z,9.64
2023-01-12T02:28:41.592Z,9.65
2023-01-12T02:29:41.603Z,9.64
2023-01-12T02:30:41.624Z,9.61
2023-01-12T02:31:41.735Z,9.74
2023-01-12T02:32:41.676Z,9.78
2023-01-12T02:33:41.696Z,9.76
2023-01-12T02:34:41.712Z,9.69
2023-01-12T02:35:41.741Z,9.78
2023-01-12T02:36:41.756Z,9.76
2023-01-12T02:37:41.772Z,9.84
2023-01-12T02:38:41.794Z,9.83
2023-01-12T02:39:41.833Z,9.83
2023-01-12T02:40:41.844Z,9.83
2023-01-12T02:41:41.863Z,9.83
2023-01-12T02:42:41.883Z,9.79
2023-01-12T02:43:41.904Z,9.89
2023-01-12T02:44:41.931Z,9.87
2023-01-12T02:45:41.951Z,9.91
2023-01-12T02:46:42.021Z,9.89
2023-01-12T02:47:41.988Z,9.87
2023-01-12T02:48:42.019Z,9.90
2023-01-12T02:49:42.029Z,9.86
2023-01-12T02:50:42.055Z,9.91
2023-01-12T02:51:42.070Z,9.99
2023-01-12T02:52:42.095Z,9.90
2023-01-12T02:53:42.127Z,9.87
2023-01-12T02:54:42.140Z,9.93
2023-01-12T02:55:42.159Z,9.94
2023-01-12T02:56:42.250Z,9.93
2023-01-12T02:57:42.200Z,9.94
2023-01-12T02:58:42.228Z,9.96
2023-01-12T02:59:42.243Z,9.99
2023-01-12T03:00:42.327Z,9.93
2023-01-12T03:01:42.333Z,9.99
2023-01-12T03:02:42.337Z,9.94
2023-01-12T03:03:42.338Z,9.97
2023-01-12T03:04:42.365Z,9.99
2023-01-12T03:05:42.375Z,9.91
2023-01-12T03:06:42.410Z,9.97
2023-01-12T03:07:42.415Z,9.93
2023-01-12T03:08:42.437Z,9.97
2023-01-12T03:09:42.459Z,9.96
2023-01-12T03:10:42.497Z,9.97
2023-01-12T03:11:42.500Z,9.99
2023-01-12T03:12:42.540Z,9.97
2023-01-12T03:13:42.547Z,9.99
2023-01-12T03:14:42.563Z,9.96
2023-01-12T03:15:42.582Z,9.99
2023-01-12T03:16:42.612Z,10.08
2023-01-12T03:17:42.629Z,10.05
2023-01-12T03:18:42.661Z,9.97
2023-01-12T03:19:42.673Z,10.02
2023-01-12T03:20:42.691Z,10.05
2023-01-12T03:21:42.714Z,10.17
2023-01-12T03:22:42.740Z,10.04
2023-01-12T03:23:42.757Z,9.99
2023-01-12T03:24:42.783Z,9.97
2023-01-12T03:25:42.798Z,9.96
2023-01-12T03:26:42.822Z,9.90
2023-01-12T03:27:42.851Z,10.01
2023-01-12T03:28:42.909Z,10.12
2023-01-12T03:29:42.904Z,9.96
2023-01-12T03:30:42.908Z,9.96
2023-01-12T03:31:42.992Z,9.96
2023-01-12T03:32:42.949Z,9.93
2023-01-12T03:33:42.970Z,9.99
2023-01-12T03:34:42.995Z,9.94
2023-01-12T03:35:43.015Z,9.91
2023-01-12T03:36:43.044Z,9.93
2023-01-12T03:37:43.055Z,9.94
2023-01-12T03:38:43.080Z,9.94
2023-01-12T03:39:43.103Z,9.90
2023-01-12T03:40:43.124Z,9.93
2023-01-12T03:41:43.143Z,9.93
2023-01-12T03:42:43.165Z,9.91
2023-01-12T03:43:43.190Z,9.93
2023-01-12T03:44:43.206Z,9.91
2023-01-12T03:45:43.229Z,9.87
2023-01-12T03:46:43.258Z,9.89
2023-01-12T03:47:43.275Z,9.97
2023-01-12T03:48:43.292Z,9.89
2023-01-12T03:49:43.313Z,9.89
2023-01-12T03:50:43.335Z,9.90
2023-01-12T03:51:43.352Z,9.84
2023-01-12T03:52:43.376Z,9.87
2023-01-12T03:53:43.402Z,9.94
2023-01-12T03:54:43.431Z,9.87
2023-01-12T03:55:43.441Z,9.93
2023-01-12T03:56:43.466Z,9.90
2023-01-12T03:57:43.485Z,9.78
2023-01-12T03:58:43.505Z,9.84
2023-01-12T03:59:43.531Z,9.84
2023-01-12T04:00:43.575Z,9.84
2023-01-12T04:01:43.711Z,9.90
2023-01-12T04:02:43.589Z,9.81
2023-01-12T04:03:43.616Z,9.91
2023-01-12T04:04:43.648Z,9.83
2023-01-12T04:05:43.663Z,9.87
2023-01-12T04:06:43.676Z,9.89
2023-01-12T04:07:43.700Z,9.86
2023-01-12T04:08:43.719Z,9.84
2023-01-12T04:09:43.745Z,9.87
2023-01-12T04:10:43.778Z,9.89
2023-01-12T04:11:43.785Z,9.91
2023-01-12T04:12:43.805Z,9.87
2023-01-12T04:13:43.825Z,9.90
2023-01-12T04:14:46.121Z,9.84
2023-01-12T04:15:43.869Z,9.89
2023-01-12T04:16:43.894Z,9.90
2023-01-12T04:17:43.916Z,9.86
2023-01-12T04:18:43.938Z,9.86
2023-01-12T04:19:43.961Z,9.86
2023-01-12T04:20:43.977Z,9.86
2023-01-12T04:21:43.995Z,9.89
2023-01-12T04:22:44.019Z,9.78
2023-01-12T04:23:44.041Z,9.79
2023-01-12T04:24:44.064Z,9.79
2023-01-12T04:25:44.120Z,9.83
2023-01-12T04:26:44.104Z,9.81
2023-01-12T04:27:44.123Z,9.79
2023-01-12T04:28:44.147Z,9.84
2023-01-12T04:29:44.165Z,9.86
2023-01-12T04:30:44.191Z,9.83
2023-01-12T04:31:44.261Z,9.78
2023-01-12T04:32:44.236Z,9.78
2023-01-12T04:33:44.250Z,9.83
2023-01-12T04:34:44.287Z,9.79
2023-01-12T04:35:44.295Z,9.84
2023-01-12T04:36:44.317Z,9.84
2023-01-12T04:37:44.343Z,9.79
2023-01-12T04:38:44.374Z,9.84
2023-01-12T04:39:44.392Z,9.84
2023-01-12T04:40:44.403Z,9.81
2023-01-12T04:41:44.426Z,9.83
2023-01-12T04:42:44.443Z,9.84
2023-01-12T04:43:44.471Z,9.79
2023-01-12T04:44:44.487Z,9.78
2023-01-12T04:45:44.539Z,9.79
2023-01-12T04:46:44.532Z,9.87
2023-01-12T04:47:44.552Z,9.86
2023-01-12T04:48:44.579Z,9.84
2023-01-12T04:49:44.595Z,9.89
2023-01-12T04:50:44.643Z,9.86
2023-01-12T04:51:44.640Z,9.89
2023-01-12T04:52:44.659Z,9.86
2023-01-12T04:53:44.769Z,9.86
2023-01-12T04:54:44.709Z,9.89
2023-01-12T04:55:44.721Z,9.83
2023-01-12T04:56:44.746Z,9.84
2023-01-12T04:57:44.764Z,9.87
2023-01-12T04:58:44.797Z,9.87
2023-01-12T04:59:44.808Z,9.89
2023-01-12T05:00:44.824Z,9.89
2023-01-12T05:01:44.881Z,9.84
2023-01-12T05:02:44.884Z,9.81
2023-01-12T05:03:44.957Z,9.79
2023-01-12T05:04:44.915Z,9.83
2023-01-12T05:05:44.935Z,9.93
2023-01-12T05:06:44.961Z,9.81
2023-01-12T05:07:44.978Z,9.86
2023-01-12T05:08:45.002Z,9.83
2023-01-12T05:09:45.026Z,9.89
2023-01-12T05:10:45.040Z,9.79
2023-01-12T05:11:45.064Z,9.78
2023-01-12T05:12:45.092Z,9.78
2023-01-12T05:13:45.108Z,9.76
2023-01-12T05:14:45.137Z,9.91
2023-01-12T05:15:45.148Z,9.89
2023-01-12T05:16:45.223Z,9.91
2023-01-12T05:17:45.186Z,9.87
2023-01-12T05:18:45.216Z,9.89
2023-01-12T05:19:45.236Z,9.90
2023-01-12T05:20:45.322Z,9.94
2023-01-12T05:21:45.301Z,9.94
2023-01-12T05:22:45.295Z,9.89
2023-01-12T05:23:45.320Z,9.93
2023-01-12T05:24:45.339Z,9.89
2023-01-12T05:25:45.363Z,9.91
2023-01-12T05:26:45.387Z,9.93
2023-01-12T05:27:45.411Z,9.96
2023-01-12T05:28:45.426Z,9.93
2023-01-12T05:29:45.445Z,9.94
2023-01-12T05:30:45.482Z,9.91
2023-01-12T05:31:45.493Z,9.96
2023-01-12T05:32:45.508Z,9.97
2023-01-12T05:33:45.534Z,9.87
2023-01-12T05:34:45.554Z,9.93
2023-01-12T05:35:45.572Z,9.94
2023-01-12T05:36:45.599Z,9.96
2023-01-12T05:37:45.618Z,10.02
2023-01-12T05:38:45.635Z,9.93
2023-01-12T05:39:45.664Z,9.93
2023-01-12T05:40:45.682Z,9.93
2023-01-12T05:41:45.704Z,9.99
2023-01-12T05:42:45.725Z,9.93
2023-01-12T05:43:45.746Z,9.94
2023-01-12T05:44:45.769Z,9.94
2023-01-12T05:45:45.800Z,9.91
2023-01-12T05:46:45.812Z,9.99
2023-01-12T05:47:45.856Z,9.87
2023-01-12T05:48:45.853Z,9.84
2023-01-12T05:49:45.876Z,9.91
2023-01-12T05:50:45.894Z,9.97
2023-01-12T05:51:45.920Z,9.86
2023-01-12T05:52:45.975Z,9.86
2023-01-12T05:53:45.977Z,9.89
2023-01-12T05:54:46.003Z,9.96
2023-01-12T05:55:46.004Z,9.93
2023-01-12T05:56:46.857Z,9.89
2023-01-12T05:57:46.043Z,9.87
2023-01-12T05:58:46.068Z,9.94
2023-01-12T05:59:46.088Z,9.84
2023-01-12T06:00:46.113Z,9.86
2023-01-12T06:01:46.134Z,9.83
2023-01-12T06:02:46.154Z,9.78
2023-01-12T06:03:46.179Z,9.76
2023-01-12T06:04:46.299Z,9.74
2023-01-12T06:05:46.216Z,9.81
2023-01-12T06:06:46.237Z,9.74
2023-01-12T06:07:46.263Z,9.71
2023-01-12T06:08:46.297Z,9.71
2023-01-12T06:09:46.307Z,9.81
2023-01-12T06:10:46.323Z,9.76
2023-01-12T06:11:46.354Z,9.78
2023-01-12T06:12:46.368Z,9.79
2023-01-12T06:13:46.393Z,9.76
2023-01-12T06:14:46.404Z,9.74
2023-01-12T06:15:46.508Z,9.68
2023-01-12T06:16:46.452Z,9.68
2023-01-12T06:17:46.512Z,9.64
2023-01-12T06:18:46.503Z,9.68
2023-01-12T06:19:46.528Z,9.61
2023-01-12T06:20:46.628Z,9.71
2023-01-12T06:21:46.593Z,9.58
2023-01-12T06:22:46.591Z,9.66
2023-01-12T06:23:46.613Z,9.64
2023-01-12T06:24:46.647Z,9.66
2023-01-12T06:25:46.642Z,9.64
2023-01-12T06:26:46.667Z,9.66
2023-01-12T06:27:46.686Z,9.64
2023-01-12T06:28:46.728Z,9.64
2023-01-12T06:29:46.732Z,9.65
2023-01-12T06:30:46.795Z,9.65
2023-01-12T06:31:46.769Z,9.66
2023-01-12T06:32:46.809Z,9.65
2023-01-12T06:33:46.813Z,9.65
2023-01-12T06:34:46.840Z,9.64
2023-01-12T06:35:46.860Z,9.64
2023-01-12T06:36:46.875Z,9.60
2023-01-12T06:37:46.894Z,9.56
2023-01-12T06:38:46.922Z,9.66
2023-01-12T06:39:46.942Z,9.61
2023-01-12T06:40:46.963Z,9.51
2023-01-12T06:41:46.984Z,9.53
2023-01-12T06:42:47.003Z,9.64
2023-01-12T06:43:47.024Z,9.53
2023-01-12T06:44:48.819Z,9.66
2023-01-12T06:45:47.073Z,9.57
2023-01-12T06:46:47.092Z,9.58
2023-01-12T06:47:47.113Z,9.56
2023-01-12T06:48:47.143Z,9.64
2023-01-12T06:49:47.154Z,9.53
2023-01-12T06:50:47.254Z,9.54
2023-01-12T06:51:47.193Z,9.69
2023-01-12T06:52:47.215Z,9.64
2023-01-12T06:53:47.234Z,9.65
2023-01-12T06:54:47.267Z,9.53
2023-01-12T06:55:47.286Z,9.54
2023-01-12T06:56:47.323Z,9.51
2023-01-12T06:57:47.325Z,9.50
2023-01-12T06:58:47.342Z,9.56
2023-01-12T06:59:47.362Z,9.51
2023-01-12T07:00:47.383Z,9.56
2023-01-12T07:01:47.472Z,9.53
2023-01-12T07:02:47.446Z,9.50
2023-01-12T07:03:47.449Z,9.53
2023-01-12T07:04:47.587Z,9.51
2023-01-12T07:05:47.490Z,9.51
2023-01-12T07:06:47.526Z,9.56
2023-01-12T07:07:47.545Z,9.53
2023-01-12T07:08:47.579Z,9.51
2023-01-12T07:09:47.576Z,9.53
2023-01-12T07:10:47.605Z,9.48
2023-01-12T07:11:47.618Z,9.51
2023-01-12T07:12:47.641Z,9.53
2023-01-12T07:13:47.660Z,9.51
2023-01-12T07:14:47.682Z,9.53
2023-01-12T07:15:47.767Z,9.50
2023-01-12T07:16:47.726Z,9.48
2023-01-12T07:17:47.755Z,9.56
2023-01-12T07:18:47.765Z,9.57
2023-01-12T07:19:47.804Z,9.51
2023-01-12T07:20:47.807Z,9.54
2023-01-12T07:21:47.827Z,9.48
2023-01-12T07:22:47.861Z,9.50
2023-01-12T07:23:47.887Z,9.54
2023-01-12T07:24:47.894Z,9.53
2023-01-12T07:25:47.911Z,9.58
2023-01-12T07:26:47.936Z,9.47
2023-01-12T07:27:47.958Z,9.53
2023-01-12T07:28:47.977Z,9.50
2023-01-12T07:29:47.998Z,9.56
2023-01-12T07:30:48.059Z,9.53
2023-01-12T07:31:48.039Z,9.53
2023-01-12T07:32:48.081Z,9.57
2023-01-12T07:33:48.082Z,9.51
2023-01-12T07:34:48.112Z,9.60
2023-01-12T07:35:48.127Z,9.53
2023-01-12T07:36:48.147Z,9.54
2023-01-12T07:37:48.166Z,9.51
2023-01-12T07:38:48.209Z,9.53
2023-01-12T07:39:48.211Z,9.51
2023-01-12T07:40:48.243Z,9.53
2023-01-12T07:41:48.253Z,9.51
2023-01-12T07:42:48.277Z,9.48
2023-01-12T07:43:48.303Z,9.51
2023-01-12T07:44:48.335Z,9.54
2023-01-12T07:45:48.336Z,9.54
2023-01-12T07:46:48.387Z,9.50
2023-01-12T07:47:48.382Z,9.58
2023-01-12T07:48:48.403Z,9.58
2023-01-12T07:49:48.428Z,9.56
2023-01-12T07:50:48.444Z,9.54
2023-01-12T07:51:48.462Z,9.53
2023-01-12T07:52:48.485Z,9.50
2023-01-12T07:53:48.505Z,9.68
2023-01-12T07:54:48.523Z,9.54
2023-01-12T07:55:48.550Z,9.48
2023-01-12T07:56:48.569Z,9.56
2023-01-12T07:57:48.588Z,9.51
2023-01-12T07:58:48.609Z,9.65
2023-01-12T07:59:48.633Z,9.60
2023-01-12T08:00:48.851Z,9.69
2023-01-12T08:01:48.742Z,9.69
2023-01-12T08:02:48.717Z,9.64
2023-01-12T08:03:48.716Z,9.61
2023-01-12T08:04:48.736Z,9.60
2023-01-12T08:05:48.792Z,9.65
2023-01-12T08:06:48.781Z,9.69
2023-01-12T08:07:48.811Z,9.68
2023-01-12T08:08:48.825Z,9.66
2023-01-12T08:09:48.862Z,9.58
2023-01-12T08:10:48.869Z,9.66
2023-01-12T08:11:48.895Z,9.58
2023-01-12T08:12:48.909Z,9.69
2023-01-12T08:13:48.928Z,9.76
2023-01-12T08:14:48.951Z,9.72
2023-01-12T08:15:49.003Z,9.61
2023-01-12T08:16:48.994Z,9.65
2023-01-12T08:17:49.011Z,9.71
2023-01-12T08:18:49.037Z,9.75
2023-01-12T08:19:49.062Z,9.72
2023-01-12T08:20:49.078Z,9.75
2023-01-12T08:21:49.101Z,9.71
2023-01-12T08:22:49.121Z,9.75
2023-01-12T08:23:49.160Z,9.75
2023-01-12T08:24:49.164Z,9.78
2023-01-12T08:25:49.182Z,9.76
2023-01-12T08:26:49.211Z,9.81
2023-01-12T08:27:49.229Z,9.81
2023-01-12T08:28:49.249Z,9.81
2023-01-12T08:29:49.267Z,9.83
2023-01-12T08:30:49.322Z,9.79
2023-01-12T08:31:49.329Z,9.83
2023-01-12T08:32:49.375Z,9.83
2023-01-12T08:33:49.356Z,9.83
2023-01-12T08:34:49.380Z,9.86
2023-01-12T08:35:49.395Z,9.84
2023-01-12T08:36:49.419Z,9.87
2023-01-12T08:37:49.437Z,9.93
2023-01-12T08:38:49.478Z,9.93
2023-01-12T08:39:49.481Z,9.87
2023-01-12T08:40:49.502Z,9.96
2023-01-12T08:41:49.525Z,9.91
2023-01-12T08:42:49.547Z,9.97
2023-01-12T08:43:49.569Z,9.94
2023-01-12T08:44:49.593Z,10.02
2023-01-12T08:45:49.610Z,9.93
2023-01-12T08:46:49.656Z,10.04
2023-01-12T08:47:49.656Z,10.04
2023-01-12T08:48:49.715Z,10.12
2023-01-12T08:49:49.701Z,10.04
2023-01-12T08:50:49.734Z,10.04
2023-01-12T08:51:49.738Z,10.12
2023-01-12T08:52:49.760Z,10.07
2023-01-12T08:53:49.791Z,10.08
2023-01-12T08:54:49.816Z,10.15
2023-01-12T08:55:49.841Z,10.04
2023-01-12T08:56:49.844Z,10.20
2023-01-12T08:57:49.865Z,10.14
2023-01-12T08:58:49.888Z,10.18
2023-01-12T08:59:49.911Z,10.26
2023-01-12T09:00:50.164Z,10.20
2023-01-12T09:01:50.161Z,10.25
2023-01-12T09:02:50.079Z,10.26
2023-01-12T09:03:50.006Z,10.18
2023-01-12T09:04:50.021Z,10.29
2023-01-12T09:05:50.041Z,10.29
2023-01-12T09:06:50.064Z,10.18
2023-01-12T09:07:50.087Z,10.30
2023-01-12T09:08:50.110Z,10.34
2023-01-12T09:09:50.138Z,10.32
2023-01-12T09:10:50.154Z,10.30
2023-01-12T09:11:50.166Z,10.41
2023-01-12T09:12:50.202Z,10.36
2023-01-12T09:13:50.211Z,10.40
2023-01-12T09:14:50.232Z,10.33
2023-01-12T09:16:01.444Z,10.27
2023-01-12T09:16:50.359Z,10.38
2023-01-12T09:17:50.296Z,10.41
2023-01-12T09:18:50.319Z,10.45
2023-01-12T09:19:50.341Z,10.45
2023-01-12T09:20:50.380Z,10.52
2023-01-12T09:21:50.383Z,10.52
2023-01-12T09:22:50.404Z,10.44
2023-01-12T09:23:50.444Z,10.59
2023-01-12T09:24:50.447Z,10.47
2023-01-12T09:25:50.471Z,10.55
2023-01-12T09:26:50.498Z,10.52
2023-01-12T09:27:50.516Z,10.59
2023-01-12T09:28:50.540Z,10.53
2023-01-12T09:29:50.561Z,10.52
2023-01-12T09:30:50.582Z,10.60
2023-01-12T09:31:50.644Z,10.55
2023-01-12T09:32:57.772Z,10.53
2023-01-12T09:34:55.116Z,10.70
2023-01-12T09:35:54.649Z,10.59
2023-01-12T09:37:58.647Z,10.68
2023-01-12T09:38:58.663Z,10.71
2023-01-12T09:41:03.166Z,10.67
2023-01-12T09:42:02.694Z,10.71
2023-01-12T09:44:06.690Z,10.63
2023-01-12T09:45:06.712Z,10.74
2023-01-12T09:47:11.195Z,10.71
2023-01-12T09:48:10.719Z,10.71
2023-01-12T09:50:14.738Z,10.74
2023-01-12T09:51:14.743Z,10.68
2023-01-12T09:53:19.246Z,10.76
2023-01-12T09:54:18.754Z,10.70
2023-01-12T09:56:22.770Z,10.66
2023-01-12T09:57:28.880Z,10.79
2023-01-12T09:59:27.267Z,10.76
2023-01-12T10:00:26.809Z,10.68
2023-01-12T10:02:33.138Z,10.74
2023-01-12T10:03:30.915Z,10.79
2023-01-12T10:05:39.682Z,10.78
2023-01-12T10:06:34.835Z,10.78
2023-01-12T10:08:38.840Z,10.73
2023-01-12T10:09:38.851Z,10.78
2023-01-12T10:11:32.329Z,10.85
2023-01-12T10:12:31.818Z,10.85
2023-01-12T10:14:35.799Z,10.85
2023-01-12T10:15:35.814Z,10.91
2023-01-12T10:17:50.615Z,10.82
2023-01-12T10:18:39.826Z,10.89
2023-01-12T10:20:43.861Z,10.85
2023-01-12T10:21:43.854Z,10.82
2023-01-12T10:23:48.334Z,10.88
2023-01-12T10:24:47.866Z,10.88
2023-01-12T10:26:51.873Z,10.92
2023-01-12T10:27:51.885Z,10.84
2023-01-12T10:29:56.375Z,10.89
2023-01-12T10:30:56.609Z,10.94
2023-01-12T10:32:59.914Z,10.91
2023-01-12T10:33:59.922Z,10.91
2023-01-12T10:36:04.940Z,10.86
2023-01-12T10:37:04.452Z,10.94
2023-01-12T10:38:04.467Z,11.03
2023-01-12T10:39:04.486Z,10.94
2023-01-12T10:40:04.509Z,10.99
2023-01-12T10:41:04.542Z,10.96
2023-01-12T10:42:04.553Z,11.00
2023-01-12T10:43:09.457Z,11.07
2023-01-12T10:44:04.597Z,11.10
2023-01-12T10:45:04.617Z,11.10
2023-01-12T10:46:04.701Z,11.06
2023-01-12T10:47:04.667Z,11.07
2023-01-12T10:48:04.714Z,11.15
2023-01-12T10:49:04.708Z,11.14
2023-01-12T10:50:04.734Z,11.09
2023-01-12T10:51:04.749Z,11.15
2023-01-12T10:52:04.775Z,11.18
2023-01-12T10:53:04.799Z,11.14
2023-01-12T10:54:04.828Z,11.14
2023-01-12T10:55:04.855Z,11.14
2023-01-12T10:56:04.853Z,11.17
2023-01-12T10:57:04.883Z,11.17
2023-01-12T10:58:04.909Z,11.15
2023-01-12T10:59:04.936Z,11.18
2023-01-12T11:00:04.950Z,11.14
2023-01-12T11:01:05.063Z,11.19
2023-01-12T11:02:05.193Z,11.19
2023-01-12T11:03:05.040Z,11.21
2023-01-12T11:04:05.057Z,11.17
2023-01-12T11:05:05.060Z,11.21
2023-01-12T11:06:05.081Z,11.24
2023-01-12T11:07:05.539Z,11.19
2023-01-12T11:08:05.126Z,11.21
2023-01-12T11:09:05.166Z,11.25
2023-01-12T11:10:05.171Z,11.24
2023-01-12T11:11:05.192Z,11.22
2023-01-12T11:12:05.209Z,11.22
2023-01-12T11:13:05.239Z,11.27
2023-01-12T11:14:05.267Z,11.24
2023-01-12T11:15:05.291Z,11.27
2023-01-12T11:16:05.303Z,11.33
2023-01-12T11:17:05.323Z,11.33
2023-01-12T11:18:05.355Z,11.36
2023-01-12T11:19:05.370Z,11.33
2023-01-12T11:20:05.390Z,11.25
2023-01-12T11:21:05.415Z,11.36
2023-01-12T11:22:05.436Z,11.25
2023-01-12T11:23:05.457Z,11.29
2023-01-12T11:24:05.493Z,11.36
2023-01-12T11:25:05.511Z,11.32
2023-01-12T11:26:05.524Z,11.33
2023-01-12T11:27:05.550Z,11.40
2023-01-12T11:28:05.574Z,11.29
2023-01-12T11:29:05.588Z,11.39
2023-01-12T11:30:05.615Z,11.28
2023-01-12T11:31:05.706Z,11.39
2023-01-12T11:32:05.658Z,11.32
2023-01-12T11:33:05.685Z,11.39
2023-01-12T11:34:05.702Z,11.36
2023-01-12T11:35:05.723Z,11.37
2023-01-12T11:36:05.747Z,11.39
2023-01-12T11:37:05.777Z,11.35
2023-01-12T11:38:05.829Z,11.35
2023-01-12T11:39:05.820Z,11.40
2023-01-12T11:40:05.841Z,11.40
2023-01-12T11:41:05.873Z,11.47
2023-01-12T11:42:06.861Z,11.44
2023-01-12T11:43:05.905Z,11.44
2023-01-12T11:44:05.929Z,11.42
2023-01-12T11:45:05.948Z,11.46
2023-01-12T11:46:06.057Z,11.40
2023-01-12T11:47:05.993Z,11.57
2023-01-12T11:48:06.015Z,11.40
2023-01-12T11:49:06.041Z,11.47
2023-01-12T11:50:06.069Z,11.51
2023-01-12T11:51:06.075Z,11.51
2023-01-12T11:52:06.103Z,11.47
2023-01-12T11:53:06.125Z,11.52
2023-01-12T11:54:06.147Z,11.54
2023-01-12T11:55:06.172Z,11.43
2023-01-12T11:56:06.202Z,11.46
2023-01-12T11:57:06.213Z,11.47
2023-01-12T11:58:06.237Z,11.46
2023-01-12T11:59:06.267Z,11.52
2023-01-12T12:00:06.282Z,11.51
2023-01-12T12:01:06.336Z,11.52
2023-01-12T12:02:06.400Z,11.55
2023-01-12T12:03:06.359Z,11.52
2023-01-12T12:04:06.943Z,11.57
2023-01-12T12:05:06.391Z,11.54
2023-01-12T12:06:06.416Z,11.54
2023-01-12T12:07:06.439Z,11.61
2023-01-12T12:08:06.462Z,11.60
2023-01-12T12:09:06.482Z,11.61
2023-01-12T12:10:06.507Z,11.61
2023-01-12T12:11:06.527Z,11.55
2023-01-12T12:12:06.562Z,11.58
2023-01-12T12:13:06.595Z,11.51
2023-01-12T12:14:06.602Z,11.54
2023-01-12T12:15:06.616Z,11.54
2023-01-12T12:16:06.722Z,11.55
2023-01-12T12:17:06.664Z,11.60
2023-01-12T12:18:06.704Z,11.60
2023-01-12T12:19:06.706Z,11.57
2023-01-12T12:20:06.733Z,11.64
2023-01-12T12:21:06.751Z,11.69
2023-01-12T12:22:06.774Z,11.58
2023-01-12T12:23:06.808Z,11.60
2023-01-12T12:24:06.818Z,11.73
2023-01-12T12:25:06.842Z,11.76
2023-01-12T12:26:06.880Z,11.79
2023-01-12T12:27:06.887Z,11.65
2023-01-12T12:28:06.918Z,11.73
2023-01-12T12:29:07.031Z,11.75
2023-01-12T12:30:06.964Z,11.76
2023-01-12T12:31:07.074Z,11.72
2023-01-12T12:32:07.003Z,11.73
2023-01-12T12:33:07.023Z,11.61
2023-01-12T12:34:07.040Z,11.76
2023-01-12T12:35:07.063Z,11.72
2023-01-12T12:36:07.088Z,11.73
2023-01-12T12:37:07.130Z,11.76
2023-01-12T12:38:07.133Z,11.78
2023-01-12T12:39:07.159Z,11.72
2023-01-12T12:40:07.196Z,11.75
2023-01-12T12:41:07.202Z,11.70
2023-01-12T12:42:07.223Z,11.73
2023-01-12T12:43:07.245Z,11.73
2023-01-12T12:44:07.269Z,11.80
2023-01-12T12:45:07.299Z,11.73
2023-01-12T12:46:07.336Z,11.73
2023-01-12T12:47:07.336Z,11.72
2023-01-12T12:48:07.388Z,11.73
2023-01-12T12:49:07.382Z,11.73
2023-01-12T12:50:07.407Z,11.72
2023-01-12T12:51:07.428Z,11.76
2023-01-12T12:52:07.451Z,11.70
2023-01-12T12:53:07.472Z,11.73
2023-01-12T12:54:07.493Z,11.73
2023-01-12T12:55:07.520Z,11.78
2023-01-12T12:56:07.548Z,11.78
2023-01-12T12:57:07.562Z,11.73
2023-01-12T12:58:07.586Z,11.75
2023-01-12T12:59:07.619Z,11.72
2023-01-12T13:00:07.642Z,11.70
2023-01-12T13:01:07.681Z,11.73
2023-01-12T13:02:07.726Z,11.75
2023-01-12T13:03:07.730Z,11.73
2023-01-12T13:04:07.720Z,11.76
2023-01-12T13:05:07.742Z,11.76
2023-01-12T13:06:07.771Z,11.73
2023-01-12T13:07:07.792Z,11.72
2023-01-12T13:08:07.808Z,11.64
2023-01-12T13:09:07.833Z,11.70
2023-01-12T13:10:07.862Z,11.60
2023-01-12T13:11:07.888Z,11.73
2023-01-12T13:12:07.909Z,11.73
2023-01-12T13:13:07.923Z,11.76
2023-01-12T13:14:07.948Z,11.73
2023-01-12T13:15:07.968Z,11.76
2023-01-12T13:16:08.032Z,11.70
2023-01-12T13:17:08.012Z,11.75
2023-01-12T13:18:08.034Z,11.80
2023-01-12T13:19:08.055Z,11.76
2023-01-12T13:20:16.726Z,11.76
2023-01-12T13:21:08.101Z,11.72
2023-01-12T13:22:08.125Z,11.76
2023-01-12T13:23:08.147Z,11.72
2023-01-12T13:24:08.169Z,11.76
2023-01-12T13:25:08.192Z,11.73
2023-01-12T13:26:08.255Z,11.79
2023-01-12T13:27:08.239Z,11.78
2023-01-12T13:28:08.260Z,11.80
2023-01-12T13:29:08.282Z,11.76
2023-01-12T13:30:08.303Z,11.75
2023-01-12T13:31:08.381Z,11.72
2023-01-12T13:32:08.351Z,11.72